createdAt,value
2022-09-02T00:02:27.219Z,100589.97
2022-09-02T00:04:55.827Z,100604.91
2022-09-02T00:07:26.250Z,100609.84
2022-09-02T00:09:55.645Z,100607.34
2022-09-02T00:12:24.743Z,100583.34
2022-09-02T00:14:53.537Z,100605.16
2022-09-02T00:17:22.175Z,100590.13
2022-09-02T00:19:56.825Z,100572.50
2022-09-02T00:22:27.279Z,100572.13
2022-09-02T00:24:59.088Z,100584.47
2022-09-02T00:27:34.077Z,100577.34
2022-09-02T00:30:02.023Z,100574.56
2022-09-02T00:32:31.051Z,100567.66
2022-09-02T00:34:59.263Z,100565.97
2022-09-02T00:37:29.664Z,100576.78
2022-09-02T00:40:00.837Z,100560.84
2022-09-02T00:42:28.927Z,100563.69
2022-09-02T00:44:57.057Z,100560.25
2022-09-02T00:47:25.922Z,100562.19
2022-09-02T00:49:55.337Z,100555.09
2022-09-02T00:52:30.472Z,100544.00
2022-09-02T00:55:03.933Z,100562.13
2022-09-02T00:57:35.059Z,100550.69
2022-09-02T01:00:10.079Z,100567.66
2022-09-02T01:02:40.044Z,100563.34
2022-09-02T01:05:11.094Z,100565.63
2022-09-02T01:07:40.657Z,100564.28
2022-09-02T01:10:13.013Z,100548.34
2022-09-02T01:12:42.471Z,100545.63
2022-09-02T01:15:12.822Z,100522.41
2022-09-02T01:17:44.584Z,100547.44
2022-09-02T01:20:15.982Z,100555.66
2022-09-02T01:22:46.685Z,100536.25
2022-09-02T01:25:26.181Z,100518.69
2022-09-02T01:27:57.448Z,100555.47
2022-09-02T01:30:27.135Z,100519.75
2022-09-02T01:32:56.992Z,100532.88
2022-09-02T01:35:28.817Z,100524.59
2022-09-02T01:38:02.755Z,100522.88
2022-09-02T01:40:33.389Z,100506.22
2022-09-02T01:43:05.808Z,100501.25
2022-09-02T01:45:34.691Z,100489.91
2022-09-02T01:48:04.505Z,100520.06
2022-09-02T01:50:35.755Z,100506.56
2022-09-02T01:53:06.385Z,100509.22
2022-09-02T01:55:35.629Z,100498.16
2022-09-02T01:58:05.610Z,100480.47
2022-09-02T02:00:34.032Z,100498.16
2022-09-02T02:03:02.477Z,100476.94
2022-09-02T02:05:36.287Z,100475.44
2022-09-02T02:08:07.697Z,100507.09
2022-09-02T02:10:37.702Z,100496.94
2022-09-02T02:13:06.885Z,100492.66
2022-09-02T02:15:38.514Z,100497.28
2022-09-02T02:18:06.849Z,100520.84
2022-09-02T02:20:35.329Z,100496.50
2022-09-02T02:23:03.554Z,100482.75
2022-09-02T02:25:34.464Z,100485.31
2022-09-02T02:28:05.652Z,100522.06
2022-09-02T02:30:36.824Z,100527.28
2022-09-02T02:33:09.489Z,100530.88
2022-09-02T02:35:37.775Z,100492.72
2022-09-02T02:38:14.407Z,100513.66
2022-09-02T02:40:45.248Z,100472.28
2022-09-02T02:43:13.395Z,100493.97
2022-09-02T02:45:41.958Z,100491.75
2022-09-02T02:48:10.155Z,100513.31
2022-09-02T02:50:38.136Z,100517.59
2022-09-02T02:53:06.546Z,100502.59
2022-09-02T02:55:36.744Z,100489.53
2022-09-02T02:58:12.582Z,100486.25
2022-09-02T03:00:46.477Z,100449.47
2022-09-02T03:03:20.006Z,100461.78
2022-09-02T03:05:49.271Z,100465.41
2022-09-02T03:08:22.795Z,100472.59
2022-09-02T03:10:58.708Z,100493.84
2022-09-02T03:13:53.513Z,100497.34
2022-09-02T03:16:23.667Z,100460.56
2022-09-02T03:18:52.521Z,100469.63
2022-09-02T03:21:21.705Z,100500.47
2022-09-02T03:23:51.651Z,100480.16
2022-09-02T03:26:24.102Z,100509.59
2022-09-02T03:28:57.367Z,100523.19
2022-09-02T03:31:28.806Z,100523.63
2022-09-02T03:34:07.498Z,100523.84
2022-09-02T03:36:40.571Z,100537.63
2022-09-02T03:39:19.561Z,100513.66
2022-09-02T03:41:56.064Z,100506.63
2022-09-02T03:44:31.283Z,100518.47
2022-09-02T03:46:59.470Z,100514.03
2022-09-02T03:49:28.355Z,100541.66
2022-09-02T03:51:57.252Z,100547.31
2022-09-02T03:54:25.602Z,100584.91
2022-09-02T03:56:53.702Z,100577.28
2022-09-02T03:59:21.784Z,100604.69
2022-09-02T04:01:51.890Z,100591.59
2022-09-02T04:04:25.896Z,100584.19
2022-09-02T04:06:55.107Z,100553.72
2022-09-02T04:09:23.563Z,100599.94
2022-09-02T04:11:51.602Z,100631.63
2022-09-02T04:14:20.601Z,100624.13
2022-09-02T04:16:48.885Z,100644.75
2022-09-02T04:19:18.662Z,100619.81
2022-09-02T04:21:47.252Z,100616.44
2022-09-02T04:24:18.172Z,100626.69
2022-09-02T04:26:48.735Z,100682.22
2022-09-02T04:29:22.253Z,100664.06
2022-09-02T04:31:50.640Z,100718.94
2022-09-02T04:38:30.842Z,100740.84
2022-09-02T04:52:21.216Z,100638.47
2022-09-02T04:55:11.074Z,100684.81
2022-09-02T04:57:45.041Z,100703.03
2022-09-02T05:00:17.174Z,100695.28
2022-09-02T05:03:26.161Z,100664.97
2022-09-02T05:06:44.719Z,100656.66
2022-09-02T05:09:16.886Z,100657.72
2022-09-02T05:11:57.489Z,100627.69
2022-09-02T05:14:45.442Z,100616.50
2022-09-02T05:17:20.861Z,100601.06
2022-09-02T05:20:05.861Z,100630.06
2022-09-02T05:23:08.036Z,100632.22
2022-09-02T05:25:57.687Z,100583.63
2022-09-02T05:28:26.563Z,100554.84
2022-09-02T05:31:06.739Z,100544.44
2022-09-02T05:33:38.851Z,100557.28
2022-09-02T05:36:14.138Z,100555.56
2022-09-02T05:38:46.061Z,100572.56
2022-09-02T05:41:23.913Z,100572.84
2022-09-02T05:44:03.622Z,100547.81
2022-09-02T05:46:35.406Z,100582.75
2022-09-02T05:49:17.550Z,100587.50
2022-09-02T05:51:48.152Z,100572.88
2022-09-02T05:54:18.582Z,100534.69
2022-09-02T05:56:54.322Z,100510.88
2022-09-02T05:59:27.134Z,100518.28
2022-09-02T06:02:05.325Z,100536.03
2022-09-02T06:04:43.684Z,100494.84
2022-09-02T06:07:13.875Z,100478.59
2022-09-02T06:09:44.750Z,100466.69
2022-09-02T06:12:24.022Z,100435.97
2022-09-02T06:15:20.186Z,100423.19
2022-09-02T06:17:50.407Z,100380.00
2022-09-02T06:20:23.897Z,100386.28
2022-09-02T06:23:12.459Z,100361.84
2022-09-02T06:25:42.911Z,100332.34
2022-09-02T06:28:25.101Z,100337.03
2022-09-02T06:31:05.195Z,100309.28
2022-09-02T06:33:37.770Z,100255.50
2022-09-02T06:36:09.689Z,100264.06
2022-09-02T06:38:48.230Z,100286.38
2022-09-02T06:41:43.052Z,100314.31
2022-09-02T06:44:58.122Z,100356.94
2022-09-02T06:47:42.177Z,100348.06
2022-09-02T06:50:11.868Z,100402.00
2022-09-02T06:52:41.059Z,100395.38
2022-09-02T06:55:10.828Z,100434.75
2022-09-02T06:57:46.656Z,100405.84
2022-09-02T07:00:26.437Z,100407.09
2022-09-02T07:03:26.646Z,100468.06
2022-09-02T07:06:12.800Z,100455.78
2022-09-02T07:08:44.427Z,100467.22
2022-09-02T07:11:18.772Z,100506.63
2022-09-02T07:13:47.006Z,100515.03
2022-09-02T07:16:20.453Z,100555.31
2022-09-02T07:18:57.064Z,100571.59
2022-09-02T07:21:25.298Z,100583.63
2022-09-02T07:23:53.471Z,100627.78
2022-09-02T07:26:24.506Z,100665.31
2022-09-02T07:28:52.718Z,100670.97
2022-09-02T07:31:21.225Z,100697.94
2022-09-02T07:33:49.969Z,100789.09
2022-09-02T07:36:21.703Z,100818.84
2022-09-02T07:38:50.057Z,101285.50
2022-09-02T07:41:18.828Z,101594.59
2022-09-02T07:43:50.985Z,101580.00
2022-09-02T07:46:20.467Z,101588.81
2022-09-02T07:48:50.752Z,101541.72
2022-09-02T07:51:20.839Z,101500.84
2022-09-02T07:53:50.330Z,101497.88
2022-09-02T07:56:18.933Z,101485.38
2022-09-02T07:58:47.466Z,101493.44
2022-09-02T08:01:18.910Z,101492.09
2022-09-02T08:03:50.080Z,101489.72
2022-09-02T08:06:18.059Z,101483.63
2022-09-02T08:09:03.385Z,101484.66
2022-09-02T08:11:31.677Z,101480.72
2022-09-02T08:14:00.638Z,101488.53
2022-09-02T08:16:29.205Z,101490.19
2022-09-02T08:18:57.918Z,101468.66
2022-09-02T08:24:40.006Z,101475.88
2022-09-02T08:27:07.909Z,101470.22
2022-09-02T08:29:35.914Z,101478.06
2022-09-02T08:32:06.597Z,101467.00
2022-09-02T08:34:35.042Z,101459.81
2022-09-02T08:37:03.016Z,101458.47
2022-09-02T08:39:30.976Z,101454.09
2022-09-02T08:42:08.954Z,101465.19
2022-09-02T08:44:40.037Z,101447.31
2022-09-02T08:47:14.379Z,101457.28
2022-09-02T08:49:45.055Z,101448.72
2022-09-02T08:52:21.445Z,101444.59
2022-09-02T08:54:55.739Z,101443.41
2022-09-02T08:57:27.670Z,101436.44
2022-09-02T08:59:58.951Z,101431.41
2022-09-02T09:02:33.475Z,101410.94
2022-09-02T09:05:24.934Z,101416.25
2022-09-02T09:08:04.969Z,101420.28
2022-09-02T09:10:41.011Z,101406.28
2022-09-02T09:13:24.795Z,101419.25
2022-09-02T09:16:00.481Z,101413.38
2022-09-02T09:18:39.025Z,101407.41
2022-09-02T09:21:07.850Z,101415.56
2022-09-02T09:23:40.919Z,101382.69
2022-09-02T09:26:12.782Z,101397.00
2022-09-02T09:28:44.781Z,101381.69
2022-09-02T09:31:15.785Z,101375.91
2022-09-02T09:33:57.407Z,101378.41
2022-09-02T09:36:49.334Z,101377.56
2022-09-02T09:39:23.549Z,101371.00
2022-09-02T09:41:55.834Z,101365.84
2022-09-02T09:44:49.219Z,101363.44
2022-09-02T09:47:20.551Z,101364.63
2022-09-02T09:49:52.059Z,101355.59
2022-09-02T09:52:32.342Z,101356.28
2022-09-02T09:55:24.920Z,101341.09
2022-09-02T09:58:11.085Z,101353.88
2022-09-02T10:00:50.278Z,101351.25
2022-09-02T10:03:27.441Z,101350.25
2022-09-02T10:06:19.495Z,101341.09
2022-09-02T10:08:57.153Z,101337.50
2022-09-02T10:11:27.684Z,101328.47
2022-09-02T10:14:01.062Z,101316.91
2022-09-02T10:16:44.803Z,101323.66
2022-09-02T10:19:26.664Z,101310.06
2022-09-02T10:22:22.208Z,101313.44
2022-09-02T10:25:21.582Z,101307.22
2022-09-02T10:27:56.832Z,101301.03
2022-09-02T10:30:26.609Z,101307.25
2022-09-02T10:33:18.700Z,101300.06
2022-09-02T10:35:52.245Z,101285.72
2022-09-02T10:38:33.627Z,101275.22
2022-09-02T10:41:19.856Z,101279.06
2022-09-02T10:44:10.429Z,101272.00
2022-09-02T10:46:49.858Z,101264.56
2022-09-02T10:49:31.227Z,101261.63
2022-09-02T10:52:08.237Z,101256.00
2022-09-02T10:54:48.124Z,101240.97
2022-09-02T10:57:20.916Z,101243.19
2022-09-02T10:59:54.233Z,101244.22
2022-09-02T11:02:28.032Z,101248.06
2022-09-02T11:05:01.900Z,101237.88
2022-09-02T11:07:34.674Z,101228.31
2022-09-02T11:10:10.571Z,101232.13
2022-09-02T11:12:42.857Z,101216.81
2022-09-02T11:15:17.511Z,101217.25
2022-09-02T11:17:52.647Z,101203.44
2022-09-02T11:20:31.647Z,101215.09
2022-09-02T11:23:07.856Z,101189.31
2022-09-02T11:25:40.910Z,101199.31
2022-09-02T11:28:27.186Z,101206.59
2022-09-02T11:31:06.731Z,101201.56
2022-09-02T11:33:45.604Z,101206.75
2022-09-02T11:36:15.086Z,101193.44
2022-09-02T11:38:52.593Z,101184.38
2022-09-02T11:41:49.081Z,101202.22
2022-09-02T11:44:52.673Z,101188.56
2022-09-02T11:47:45.725Z,101187.06
2022-09-02T11:50:38.739Z,101186.03
2022-09-02T11:53:21.865Z,101179.16
2022-09-02T11:55:56.927Z,101177.81
2022-09-02T11:58:37.249Z,101171.53
2022-09-02T12:01:25.872Z,101166.38
2022-09-02T12:04:55.468Z,101150.53
2022-09-02T12:07:20.923Z,101160.22
2022-09-02T12:09:57.560Z,101159.38
2022-09-02T12:13:03.896Z,101158.34
2022-09-02T12:15:36.478Z,101159.75
2022-09-02T12:18:13.071Z,101143.53
2022-09-02T12:21:16.879Z,101143.38
2022-09-02T12:24:12.565Z,101133.91
2022-09-02T12:27:26.146Z,101118.66
2022-09-02T12:29:56.647Z,101125.97
2022-09-02T12:33:03.374Z,101123.97
2022-09-02T12:35:52.285Z,101112.34
2022-09-02T12:38:27.949Z,101123.88
2022-09-02T12:41:16.273Z,101120.25
2022-09-02T12:44:11.981Z,101115.06
2022-09-02T12:47:01.803Z,101095.00
2022-09-02T12:49:42.355Z,101087.63
2022-09-02T12:52:12.533Z,101110.22
2022-09-02T12:54:48.847Z,101105.41
2022-09-02T12:57:18.436Z,101099.09
2022-09-02T12:59:48.451Z,101097.25
2022-09-02T13:02:51.159Z,101105.44
2022-09-02T13:05:25.187Z,101094.34
2022-09-02T13:08:24.844Z,101083.22
2022-09-02T13:11:26.145Z,101093.72
2022-09-02T13:14:25.676Z,101082.19
2022-09-02T13:17:36.080Z,101080.28
2022-09-02T13:20:34.537Z,101077.47
2022-09-02T13:23:23.797Z,101083.03
2022-09-02T13:26:47.942Z,101076.13
2022-09-02T13:29:52.647Z,101075.81
2022-09-02T13:32:24.871Z,101073.66
2022-09-02T13:34:56.221Z,101066.94
2022-09-02T13:37:37.239Z,101062.16
2022-09-02T13:40:17.783Z,101067.91
2022-09-02T13:42:50.276Z,101062.13
2022-09-02T13:45:20.510Z,101059.50
2022-09-02T13:47:52.698Z,101056.84
2022-09-02T13:50:25.337Z,101056.00
2022-09-02T13:55:49.888Z,101045.34
2022-09-02T13:58:25.293Z,101042.47
2022-09-02T14:00:53.489Z,101036.03
2022-09-02T14:03:26.044Z,101027.66
2022-09-02T14:05:56.048Z,101040.13
2022-09-02T14:08:28.860Z,101035.69
2022-09-02T14:10:58.397Z,101028.19
2022-09-02T14:13:27.787Z,101021.06
2022-09-02T14:16:16.123Z,101028.78
2022-09-02T14:19:08.671Z,101020.69
2022-09-02T14:21:37.966Z,101015.25
2022-09-02T14:24:22.204Z,101021.47
2022-09-02T14:26:53.057Z,101016.25
2022-09-02T14:29:22.020Z,101018.41
2022-09-02T14:32:09.913Z,101007.19
2022-09-02T14:34:39.754Z,100996.31
2022-09-02T14:37:22.325Z,100998.81
2022-09-02T14:40:06.334Z,100985.44
2022-09-02T14:42:34.537Z,100980.78
2022-09-02T14:45:05.641Z,100983.94
2022-09-02T14:47:39.122Z,100975.94
2022-09-02T14:50:12.189Z,100973.13
2022-09-02T14:52:48.302Z,100989.78
2022-09-02T14:55:50.035Z,100989.63
2022-09-02T14:58:18.882Z,100984.97
2022-09-02T15:00:52.154Z,100982.63
2022-09-02T15:03:20.847Z,100990.44
2022-09-02T15:05:50.293Z,100990.38
2022-09-02T15:08:20.006Z,100971.47
2022-09-02T15:10:50.224Z,100992.16
2022-09-02T15:13:27.677Z,100977.81
2022-09-02T15:15:59.544Z,100972.44
2022-09-02T15:18:28.725Z,100981.19
2022-09-02T15:20:57.636Z,100967.53
2022-09-02T15:23:27.287Z,100972.09
2022-09-02T15:25:58.036Z,100966.03
2022-09-02T15:28:26.082Z,100955.16
2022-09-02T15:30:59.355Z,100966.47
2022-09-02T15:33:28.467Z,100970.34
2022-09-02T15:35:56.512Z,100954.19
2022-09-02T15:38:24.556Z,100959.16
2022-09-02T15:40:52.690Z,100964.69
2022-09-02T15:43:22.630Z,100956.53
2022-09-02T15:45:50.773Z,100957.56
2022-09-02T15:48:18.726Z,100959.66
2022-09-02T15:50:46.797Z,100953.59
2022-09-02T15:53:15.698Z,100962.56
2022-09-02T15:55:43.559Z,100956.72
2022-09-02T15:58:12.170Z,100948.00
2022-09-02T16:00:41.675Z,100943.34
2022-09-02T16:03:11.950Z,100930.72
2022-09-02T16:05:39.738Z,100933.41
2022-09-02T16:08:07.633Z,100947.44
2022-09-02T16:10:37.652Z,100937.50
2022-09-02T16:13:05.775Z,100936.97
2022-09-02T16:15:34.459Z,100945.16
2022-09-02T16:18:04.114Z,100926.25
2022-09-02T16:20:32.041Z,100941.84
2022-09-02T16:22:59.946Z,100932.72
2022-09-02T16:25:27.712Z,100932.06
2022-09-02T16:27:56.672Z,100920.38
2022-09-02T16:30:25.714Z,100922.09
2022-09-02T16:32:57.098Z,100924.41
2022-09-02T16:35:26.683Z,100918.47
2022-09-02T16:37:57.503Z,100915.91
2022-09-02T16:40:25.727Z,100920.75
2022-09-02T16:42:53.731Z,100924.63
2022-09-02T16:45:21.633Z,100920.69
2022-09-02T16:47:49.402Z,100914.38
2022-09-02T16:50:17.476Z,100938.66
2022-09-02T16:52:47.266Z,100916.41
2022-09-02T16:55:18.663Z,100918.66
2022-09-02T16:57:48.769Z,100919.00
2022-09-02T17:00:28.253Z,100926.88
2022-09-02T17:03:00.815Z,100917.28
2022-09-02T17:05:32.379Z,100926.66
2022-09-02T17:08:02.745Z,100922.56
2022-09-02T17:10:30.990Z,100922.16
2022-09-02T17:13:00.558Z,100922.91
2022-09-02T17:15:30.045Z,100917.28
2022-09-02T17:17:58.157Z,100924.91
2022-09-02T17:20:26.797Z,100923.78
2022-09-02T17:22:55.418Z,100924.78
2022-09-02T17:25:24.679Z,100925.13
2022-09-02T17:27:52.683Z,100921.44
2022-09-02T17:30:23.847Z,100918.03
2022-09-02T17:32:56.322Z,100917.31
2022-09-02T17:35:26.740Z,100920.41
2022-09-02T17:37:54.711Z,100928.69
2022-09-02T17:40:41.316Z,100927.63
2022-09-02T17:43:09.331Z,100926.16
2022-09-02T17:45:37.485Z,100918.84
2022-09-02T17:48:34.281Z,100910.25
2022-09-02T17:51:03.650Z,100923.81
2022-09-02T17:53:43.976Z,100924.44
2022-09-02T17:56:48.567Z,100928.75
2022-09-02T17:59:25.726Z,100930.13
2022-09-02T18:02:04.946Z,100930.72
2022-09-02T18:04:49.328Z,100928.22
2022-09-02T18:07:27.776Z,100929.41
2022-09-02T18:09:55.956Z,100934.22
2022-09-02T18:12:26.814Z,100919.78
2022-09-02T18:14:59.250Z,100924.41
2022-09-02T18:17:34.909Z,100931.69
2022-09-02T18:20:10.944Z,100934.16
2022-09-02T18:23:12.775Z,100933.41
2022-09-02T18:25:51.080Z,100942.50
2022-09-02T18:28:38.716Z,100944.81
2022-09-02T18:31:18.748Z,100949.13
2022-09-02T18:34:05.510Z,100945.78
2022-09-02T18:36:42.637Z,100954.97
2022-09-02T18:39:39.314Z,100951.78
2022-09-02T18:42:18.266Z,100960.91
2022-09-02T18:44:58.029Z,100968.16
2022-09-02T18:47:32.700Z,100962.63
2022-09-02T18:50:04.705Z,100971.75
2022-09-02T18:52:35.012Z,100975.81
2022-09-02T18:55:09.993Z,100970.31
2022-09-02T18:57:43.026Z,100968.88
2022-09-02T19:00:16.023Z,100974.78
2022-09-02T19:02:49.143Z,100986.91
2022-09-02T19:05:20.988Z,100979.69
2022-09-02T19:08:14.520Z,100981.19
2022-09-02T19:10:42.421Z,100982.56
2022-09-02T19:13:10.501Z,100992.63
2022-09-02T19:15:41.123Z,100983.59
2022-09-02T19:18:10.643Z,100990.22
2022-09-02T19:20:39.959Z,100987.19
2022-09-02T19:23:12.205Z,100996.50
2022-09-02T19:25:44.206Z,100993.59
2022-09-02T19:28:15.419Z,100993.78
2022-09-02T19:30:45.444Z,100990.00
2022-09-02T19:33:14.775Z,100991.13
2022-09-02T19:35:47.535Z,100984.25
2022-09-02T19:38:17.737Z,100982.91
2022-09-02T19:40:49.438Z,100983.81
2022-09-02T19:43:17.480Z,100985.81
2022-09-02T19:45:51.367Z,100988.09
2022-09-02T19:48:20.220Z,100989.94
2022-09-02T19:50:49.204Z,100995.22
2022-09-02T19:53:25.705Z,100990.78
2022-09-02T19:55:53.627Z,100991.19
2022-09-02T19:58:24.902Z,100988.84
2022-09-02T20:00:56.043Z,100998.31
2022-09-02T20:03:23.937Z,100991.88
2022-09-02T20:05:52.470Z,101008.19
2022-09-02T20:08:28.935Z,101007.75
2022-09-02T20:10:59.003Z,101010.59
2022-09-02T20:13:27.823Z,101009.47
2022-09-02T20:15:58.407Z,101009.22
2022-09-02T20:18:27.795Z,100986.03
2022-09-02T20:20:58.796Z,101002.38
2022-09-02T20:23:28.672Z,101005.78
2022-09-02T20:26:10.434Z,101002.81
2022-09-02T20:28:53.305Z,101012.41
2022-09-02T20:31:40.783Z,101005.41
2022-09-02T20:34:29.863Z,101002.94
2022-09-02T20:37:11.948Z,101002.41
2022-09-02T20:39:53.938Z,101010.00
2022-09-02T20:42:39.543Z,101007.38
2022-09-02T20:45:14.536Z,101006.84
2022-09-02T20:47:58.365Z,101003.53
2022-09-02T20:50:38.584Z,101010.53
2022-09-02T20:53:19.217Z,101003.44
2022-09-02T20:55:56.952Z,101016.47
2022-09-02T20:58:36.044Z,101011.75
2022-09-02T21:01:07.919Z,101006.72
2022-09-02T21:03:52.041Z,101005.31
2022-09-02T21:06:22.205Z,100997.56
2022-09-02T21:09:00.700Z,101006.09
2022-09-02T21:11:35.600Z,101012.00
2022-09-02T21:14:17.386Z,101003.94
2022-09-02T21:16:52.207Z,101012.91
2022-09-02T21:19:30.497Z,101015.16
2022-09-02T21:22:22.623Z,101011.38
2022-09-02T21:25:04.369Z,101004.50
2022-09-02T21:27:35.866Z,101014.53
2022-09-02T21:30:08.140Z,101013.59
2022-09-02T21:32:41.175Z,101015.72
2022-09-02T21:35:18.431Z,101016.53
2022-09-02T21:37:59.337Z,101004.50
2022-09-02T21:40:44.911Z,101018.66
2022-09-02T21:43:27.352Z,101005.59
2022-09-02T21:46:08.224Z,101007.75
2022-09-02T21:48:49.865Z,101012.41
2022-09-02T21:51:27.457Z,101007.81
2022-09-02T21:54:05.634Z,101011.50
2022-09-02T21:56:59.023Z,101009.75
2022-09-02T21:59:46.139Z,101008.81
2022-09-02T22:02:20.215Z,101004.53
2022-09-02T22:05:01.277Z,101000.25
2022-09-02T22:07:38.916Z,101006.78
2022-09-02T22:10:13.596Z,101003.69
2022-09-02T22:12:50.139Z,101002.94
2022-09-02T22:15:28.248Z,101002.75
2022-09-02T22:18:10.980Z,100999.59
2022-09-02T22:20:45.045Z,100995.47
2022-09-02T22:23:25.734Z,100993.38
2022-09-02T22:25:55.702Z,101010.13
2022-09-02T22:28:31.265Z,101007.09
2022-09-02T22:31:02.779Z,101008.78
2022-09-02T22:33:36.623Z,101011.13
2022-09-02T22:36:09.760Z,101006.97
2022-09-02T22:38:46.328Z,101001.06
2022-09-02T22:41:24.695Z,101005.56
2022-09-02T22:43:58.995Z,101004.69
2022-09-02T22:46:50.842Z,101004.09
2022-09-02T22:49:39.460Z,100995.50
2022-09-02T22:52:35.334Z,100999.78
2022-09-02T22:55:06.522Z,100991.34
2022-09-02T22:57:48.869Z,101004.34
2022-09-02T23:00:18.538Z,100995.19
2022-09-02T23:02:56.720Z,101000.53
2022-09-02T23:05:45.226Z,100988.69
2022-09-02T23:08:15.482Z,100988.31
2022-09-02T23:10:57.027Z,100994.59
2022-09-02T23:13:46.842Z,100987.56
2022-09-02T23:16:26.071Z,100980.72
2022-09-02T23:19:07.729Z,100973.16
2022-09-02T23:21:47.137Z,100986.25
2022-09-02T23:24:26.416Z,100986.41
2022-09-02T23:27:05.942Z,100986.00
2022-09-02T23:29:35.644Z,100981.66
2022-09-02T23:32:23.692Z,100977.34
2022-09-02T23:35:11.370Z,100983.66
2022-09-02T23:37:56.861Z,100972.25
2022-09-02T23:40:29.982Z,100980.00
2022-09-02T23:43:00.499Z,100970.69
2022-09-02T23:45:32.015Z,100976.59
2022-09-02T23:48:26.123Z,100972.03
2022-09-02T23:51:06.749Z,100967.59
2022-09-02T23:53:40.396Z,100976.59
2022-09-02T23:56:23.628Z,100962.59
2022-09-02T23:59:15.012Z,100964.19
